sensor_id;sensor_type;location;lat;lon;timestamp;temperature;humidity
36790;DHT22;22740;52.182;8.780;2023-08-21T00:02:04;19.60;99.90
36790;DHT22;22740;52.182;8.780;2023-08-21T00:08:06;19.50;99.90
36790;DHT22;22740;52.182;8.780;2023-08-21T00:14:08;19.60;99.90
36790;DHT22;22740;52.182;8.780;2023-08-21T00:20:10;19.40;99.90
36790;DHT22;22740;52.182;8.780;2023-08-21T00:26:12;19.30;99.90
36790;DHT22;22740;52.182;8.780;2023-08-21T00:32:14;19.30;99.90
36790;DHT22;22740;52.182;8.780;2023-08-21T00:38:16;19.10;99.90
36790;DHT22;22740;52.182;8.780;2023-08-21T00:44:17;19.30;99.90
36790;DHT22;22740;52.182;8.780;2023-08-21T00:50:19;19.00;99.90
36790;DHT22;22740;52.182;8.780;2023-08-21T00:56:21;19.10;99.90
36790;DHT22;22740;52.182;8.780;2023-08-21T01:02:23;19.10;99.90
36790;DHT22;22740;52.182;8.780;2023-08-21T01:08:27;19.00;99.90
36790;DHT22;22740;52.182;8.780;2023-08-21T01:14:35;19.00;99.90
36790;DHT22;22740;52.182;8.780;2023-08-21T01:20:38;18.70;99.90
36790;DHT22;22740;52.182;8.780;2023-08-21T01:26:40;18.90;99.90
36790;DHT22;22740;52.182;8.780;2023-08-21T01:38:44;18.90;99.90
36790;DHT22;22740;52.182;8.780;2023-08-21T01:44:46;19.10;99.90
36790;DHT22;22740;52.182;8.780;2023-08-21T01:50:48;19.00;99.90
36790;DHT22;22740;52.182;8.780;2023-08-21T01:56:50;19.00;99.90
36790;DHT22;22740;52.182;8.780;2023-08-21T02:02:52;19.20;99.90
36790;DHT22;22740;52.182;8.780;2023-08-21T02:08:54;19.10;99.90
36790;DHT22;22740;52.182;8.780;2023-08-21T02:14:56;19.20;99.90
36790;DHT22;22740;52.182;8.780;2023-08-21T02:20:57;19.20;99.90
36790;DHT22;22740;52.182;8.780;2023-08-21T02:26:59;19.00;99.90
36790;DHT22;22740;52.182;8.780;2023-08-21T02:33:01;18.90;99.90
36790;DHT22;22740;52.182;8.780;2023-08-21T02:39:03;18.70;99.90
36790;DHT22;22740;52.182;8.780;2023-08-21T02:45:05;18.50;99.90
36790;DHT22;22740;52.182;8.780;2023-08-21T02:51:10;18.50;99.90
36790;DHT22;22740;52.182;8.780;2023-08-21T02:57:12;18.80;99.90
36790;DHT22;22740;52.182;8.780;2023-08-21T03:03:14;18.80;99.90
36790;DHT22;22740;52.182;8.780;2023-08-21T03:09:15;18.50;99.90
36790;DHT22;22740;52.182;8.780;2023-08-21T03:15:17;18.80;99.90
36790;DHT22;22740;52.182;8.780;2023-08-21T03:21:19;18.80;99.90
36790;DHT22;22740;52.182;8.780;2023-08-21T03:27:21;18.90;99.90
36790;DHT22;22740;52.182;8.780;2023-08-21T03:33:23;18.80;99.90
36790;DHT22;22740;52.182;8.780;2023-08-21T03:39:25;18.80;99.90
36790;DHT22;22740;52.182;8.780;2023-08-21T03:45:26;18.30;99.90
36790;DHT22;22740;52.182;8.780;2023-08-21T03:51:29;18.20;99.90
36790;DHT22;22740;52.182;8.780;2023-08-21T03:57:31;18.40;99.90
36790;DHT22;22740;52.182;8.780;2023-08-21T04:03:33;18.50;99.90
36790;DHT22;22740;52.182;8.780;2023-08-21T04:09:35;18.40;99.90
36790;DHT22;22740;52.182;8.780;2023-08-21T04:15:37;18.20;99.90
36790;DHT22;22740;52.182;8.780;2023-08-21T04:21:38;18.40;99.90
36790;DHT22;22740;52.182;8.780;2023-08-21T04:27:41;18.10;99.90
36790;DHT22;22740;52.182;8.780;2023-08-21T04:33:42;18.30;99.90
36790;DHT22;22740;52.182;8.780;2023-08-21T04:39:45;18.30;99.90
36790;DHT22;22740;52.182;8.780;2023-08-21T04:45:50;18.60;99.90
36790;DHT22;22740;52.182;8.780;2023-08-21T04:51:54;18.70;99.90
36790;DHT22;22740;52.182;8.780;2023-08-21T04:57:56;18.70;99.90
36790;DHT22;22740;52.182;8.780;2023-08-21T05:03:58;19.50;99.90
36790;DHT22;22740;52.182;8.780;2023-08-21T05:10:01;19.70;99.90
36790;DHT22;22740;52.182;8.780;2023-08-21T05:16:03;19.60;99.90
36790;DHT22;22740;52.182;8.780;2023-08-21T05:22:05;19.30;99.90
36790;DHT22;22740;52.182;8.780;2023-08-21T05:28:07;19.00;99.90
36790;DHT22;22740;52.182;8.780;2023-08-21T05:34:09;18.90;99.90
36790;DHT22;22740;52.182;8.780;2023-08-21T05:40:11;18.80;99.90
36790;DHT22;22740;52.182;8.780;2023-08-21T05:46:14;18.70;99.90
36790;DHT22;22740;52.182;8.780;2023-08-21T05:52:19;19.00;99.90
36790;DHT22;22740;52.182;8.780;2023-08-21T05:58:21;18.90;99.90
36790;DHT22;22740;52.182;8.780;2023-08-21T06:04:23;19.00;99.90
36790;DHT22;22740;52.182;8.780;2023-08-21T06:10:25;19.20;99.90
36790;DHT22;22740;52.182;8.780;2023-08-21T06:16:27;19.30;99.90
36790;DHT22;22740;52.182;8.780;2023-08-21T06:22:29;19.20;99.90
36790;DHT22;22740;52.182;8.780;2023-08-21T06:28:31;19.40;99.90
36790;DHT22;22740;52.182;8.780;2023-08-21T06:34:32;19.60;99.90
36790;DHT22;22740;52.182;8.780;2023-08-21T06:40:35;19.50;99.90
36790;DHT22;22740;52.182;8.780;2023-08-21T06:46:37;19.90;99.90
36790;DHT22;22740;52.182;8.780;2023-08-21T06:52:39;20.00;99.90
36790;DHT22;22740;52.182;8.780;2023-08-21T06:58:41;20.10;99.90
36790;DHT22;22740;52.182;8.780;2023-08-21T07:04:43;20.30;99.90
36790;DHT22;22740;52.182;8.780;2023-08-21T07:10:45;20.60;99.90
36790;DHT22;22740;52.182;8.780;2023-08-21T07:16:46;20.80;99.90
36790;DHT22;22740;52.182;8.780;2023-08-21T07:22:48;20.70;99.90
36790;DHT22;22740;52.182;8.780;2023-08-21T07:28:51;20.70;99.90
36790;DHT22;22740;52.182;8.780;2023-08-21T07:34:54;20.60;99.90
36790;DHT22;22740;52.182;8.780;2023-08-21T07:41:03;20.80;99.90
36790;DHT22;22740;52.182;8.780;2023-08-21T07:47:06;20.80;99.90
36790;DHT22;22740;52.182;8.780;2023-08-21T07:53:07;21.00;99.90
36790;DHT22;22740;52.182;8.780;2023-08-21T07:59:09;21.00;99.90
36790;DHT22;22740;52.182;8.780;2023-08-21T08:05:11;21.00;99.90
36790;DHT22;22740;52.182;8.780;2023-08-21T08:11:13;21.10;99.90
36790;DHT22;22740;52.182;8.780;2023-08-21T08:17:15;21.10;99.90
36790;DHT22;22740;52.182;8.780;2023-08-21T08:23:17;21.00;99.90
36790;DHT22;22740;52.182;8.780;2023-08-21T08:29:22;21.20;99.90
36790;DHT22;22740;52.182;8.780;2023-08-21T08:35:23;21.20;99.90
36790;DHT22;22740;52.182;8.780;2023-08-21T08:41:27;21.30;99.90
36790;DHT22;22740;52.182;8.780;2023-08-21T08:47:32;21.20;99.90
36790;DHT22;22740;52.182;8.780;2023-08-21T08:53:35;21.10;99.90
36790;DHT22;22740;52.182;8.780;2023-08-21T08:59:37;21.40;99.90
36790;DHT22;22740;52.182;8.780;2023-08-21T09:05:39;21.80;99.90
36790;DHT22;22740;52.182;8.780;2023-08-21T09:11:43;21.80;99.90
36790;DHT22;22740;52.182;8.780;2023-08-21T09:17:52;22.00;99.90
36790;DHT22;22740;52.182;8.780;2023-08-21T09:23:58;22.20;99.90
36790;DHT22;22740;52.182;8.780;2023-08-21T09:30:01;22.20;99.90
36790;DHT22;22740;52.182;8.780;2023-08-21T09:36:04;22.30;99.90
36790;DHT22;22740;52.182;8.780;2023-08-21T09:42:09;22.30;99.90
36790;DHT22;22740;52.182;8.780;2023-08-21T09:48:11;22.60;99.90
36790;DHT22;22740;52.182;8.780;2023-08-21T09:54:13;23.10;99.90
36790;DHT22;22740;52.182;8.780;2023-08-21T10:00:16;23.00;99.90
36790;DHT22;22740;52.182;8.780;2023-08-21T10:06:22;22.80;99.90
36790;DHT22;22740;52.182;8.780;2023-08-21T10:12:25;22.80;99.90
36790;DHT22;22740;52.182;8.780;2023-08-21T10:18:31;22.30;99.90
36790;DHT22;22740;52.182;8.780;2023-08-21T10:24:37;22.10;99.90
36790;DHT22;22740;52.182;8.780;2023-08-21T10:30:39;22.10;99.90
36790;DHT22;22740;52.182;8.780;2023-08-21T10:42:47;22.10;99.90
36790;DHT22;22740;52.182;8.780;2023-08-21T10:48:49;22.30;99.90
36790;DHT22;22740;52.182;8.780;2023-08-21T10:55:00;22.20;99.90
36790;DHT22;22740;52.182;8.780;2023-08-21T11:01:02;22.30;99.90
36790;DHT22;22740;52.182;8.780;2023-08-21T11:07:04;22.40;99.90
36790;DHT22;22740;52.182;8.780;2023-08-21T11:13:06;23.00;99.90
36790;DHT22;22740;52.182;8.780;2023-08-21T11:19:08;23.50;99.90
36790;DHT22;22740;52.182;8.780;2023-08-21T11:25:10;23.60;99.90
36790;DHT22;22740;52.182;8.780;2023-08-21T11:31:12;23.10;99.90
36790;DHT22;22740;52.182;8.780;2023-08-21T11:37:13;23.10;99.90
36790;DHT22;22740;52.182;8.780;2023-08-21T11:43:17;23.20;99.90
36790;DHT22;22740;52.182;8.780;2023-08-21T11:49:19;23.20;99.90
36790;DHT22;22740;52.182;8.780;2023-08-21T11:55:21;23.10;99.90
36790;DHT22;22740;52.182;8.780;2023-08-21T12:01:24;23.70;99.90
36790;DHT22;22740;52.182;8.780;2023-08-21T12:07:25;24.50;99.90
36790;DHT22;22740;52.182;8.780;2023-08-21T12:13:27;24.30;99.90
36790;DHT22;22740;52.182;8.780;2023-08-21T12:19:34;24.50;99.90
36790;DHT22;22740;52.182;8.780;2023-08-21T12:25:36;24.10;99.90
36790;DHT22;22740;52.182;8.780;2023-08-21T12:31:38;24.10;99.90
36790;DHT22;22740;52.182;8.780;2023-08-21T12:37:40;24.80;99.90
36790;DHT22;22740;52.182;8.780;2023-08-21T12:43:42;24.80;99.90
36790;DHT22;22740;52.182;8.780;2023-08-21T12:49:44;24.50;99.90
36790;DHT22;22740;52.182;8.780;2023-08-21T12:55:45;24.10;99.90
36790;DHT22;22740;52.182;8.780;2023-08-21T13:01:48;24.20;99.90
36790;DHT22;22740;52.182;8.780;2023-08-21T13:07:52;24.40;99.90
36790;DHT22;22740;52.182;8.780;2023-08-21T13:13:54;24.10;99.90
36790;DHT22;22740;52.182;8.780;2023-08-21T13:19:56;24.60;99.90
36790;DHT22;22740;52.182;8.780;2023-08-21T13:25:58;24.50;99.90
36790;DHT22;22740;52.182;8.780;2023-08-21T13:32:00;24.30;99.90
36790;DHT22;22740;52.182;8.780;2023-08-21T13:38:01;24.40;99.90
36790;DHT22;22740;52.182;8.780;2023-08-21T13:44:05;24.50;99.90
36790;DHT22;22740;52.182;8.780;2023-08-21T13:50:10;24.20;99.90
36790;DHT22;22740;52.182;8.780;2023-08-21T13:56:12;23.90;99.90
36790;DHT22;22740;52.182;8.780;2023-08-21T14:02:13;23.90;99.90
36790;DHT22;22740;52.182;8.780;2023-08-21T14:08:15;24.50;99.90
36790;DHT22;22740;52.182;8.780;2023-08-21T14:14:17;24.40;99.90
36790;DHT22;22740;52.182;8.780;2023-08-21T14:20:19;24.70;99.90
36790;DHT22;22740;52.182;8.780;2023-08-21T14:26:21;24.50;99.90
36790;DHT22;22740;52.182;8.780;2023-08-21T14:32:23;24.40;99.90
36790;DHT22;22740;52.182;8.780;2023-08-21T14:38:25;24.60;99.90
36790;DHT22;22740;52.182;8.780;2023-08-21T14:44:27;24.40;99.90
36790;DHT22;22740;52.182;8.780;2023-08-21T14:50:28;24.50;99.90
36790;DHT22;22740;52.182;8.780;2023-08-21T14:56:31;24.40;99.90
36790;DHT22;22740;52.182;8.780;2023-08-21T15:02:34;24.20;99.90
36790;DHT22;22740;52.182;8.780;2023-08-21T15:08:37;24.30;99.90
36790;DHT22;22740;52.182;8.780;2023-08-21T15:14:40;24.30;99.90
36790;DHT22;22740;52.182;8.780;2023-08-21T15:20:42;24.20;99.90
36790;DHT22;22740;52.182;8.780;2023-08-21T15:26:44;24.00;99.90
36790;DHT22;22740;52.182;8.780;2023-08-21T15:32:45;24.00;99.90
36790;DHT22;22740;52.182;8.780;2023-08-21T15:38:49;23.80;99.90
36790;DHT22;22740;52.182;8.780;2023-08-21T15:44:51;23.80;99.90
36790;DHT22;22740;52.182;8.780;2023-08-21T15:50:52;23.90;99.90
36790;DHT22;22740;52.182;8.780;2023-08-21T15:56:54;24.10;99.90
36790;DHT22;22740;52.182;8.780;2023-08-21T16:02:56;24.20;99.90
36790;DHT22;22740;52.182;8.780;2023-08-21T16:08:58;24.50;99.90
36790;DHT22;22740;52.182;8.780;2023-08-21T16:15:00;24.40;99.90
36790;DHT22;22740;52.182;8.780;2023-08-21T16:21:02;24.50;99.90
36790;DHT22;22740;52.182;8.780;2023-08-21T16:27:04;24.30;99.90
36790;DHT22;22740;52.182;8.780;2023-08-21T16:33:05;24.20;99.90
36790;DHT22;22740;52.182;8.780;2023-08-21T16:39:08;24.60;99.90
36790;DHT22;22740;52.182;8.780;2023-08-21T16:45:09;24.80;99.90
36790;DHT22;22740;52.182;8.780;2023-08-21T16:51:14;25.00;99.90
36790;DHT22;22740;52.182;8.780;2023-08-21T16:57:16;25.00;99.90
36790;DHT22;22740;52.182;8.780;2023-08-21T17:03:17;24.90;99.90
36790;DHT22;22740;52.182;8.780;2023-08-21T17:09:19;24.70;99.90
36790;DHT22;22740;52.182;8.780;2023-08-21T17:15:21;24.20;99.90
36790;DHT22;22740;52.182;8.780;2023-08-21T17:21:23;24.00;99.90
36790;DHT22;22740;52.182;8.780;2023-08-21T17:27:25;23.90;99.90
36790;DHT22;22740;52.182;8.780;2023-08-21T17:33:27;23.70;99.90
36790;DHT22;22740;52.182;8.780;2023-08-21T17:39:29;23.60;99.90
36790;DHT22;22740;52.182;8.780;2023-08-21T17:45:31;23.80;99.90
36790;DHT22;22740;52.182;8.780;2023-08-21T17:51:41;23.60;99.90
36790;DHT22;22740;52.182;8.780;2023-08-21T17:57:49;23.20;99.90
36790;DHT22;22740;52.182;8.780;2023-08-21T18:03:54;23.20;99.90
36790;DHT22;22740;52.182;8.780;2023-08-21T18:09:56;23.20;99.90
36790;DHT22;22740;52.182;8.780;2023-08-21T18:15:58;23.00;99.90
36790;DHT22;22740;52.182;8.780;2023-08-21T18:22:02;22.90;99.90
36790;DHT22;22740;52.182;8.780;2023-08-21T18:28:05;22.90;99.90
36790;DHT22;22740;52.182;8.780;2023-08-21T18:34:09;22.80;99.90
36790;DHT22;22740;52.182;8.780;2023-08-21T18:40:11;22.70;99.90
36790;DHT22;22740;52.182;8.780;2023-08-21T18:46:14;22.40;99.90
36790;DHT22;22740;52.182;8.780;2023-08-21T18:52:16;22.30;99.90
36790;DHT22;22740;52.182;8.780;2023-08-21T18:58:18;22.00;99.90
36790;DHT22;22740;52.182;8.780;2023-08-21T19:04:20;21.80;99.90
36790;DHT22;22740;52.182;8.780;2023-08-21T19:10:22;21.50;99.90
36790;DHT22;22740;52.182;8.780;2023-08-21T19:16:25;21.50;99.90
36790;DHT22;22740;52.182;8.780;2023-08-21T19:22:27;21.50;99.90
36790;DHT22;22740;52.182;8.780;2023-08-21T19:28:29;21.60;99.90
36790;DHT22;22740;52.182;8.780;2023-08-21T19:34:31;21.60;99.90
36790;DHT22;22740;52.182;8.780;2023-08-21T19:40:36;21.60;99.90
36790;DHT22;22740;52.182;8.780;2023-08-21T19:46:39;21.60;99.90
36790;DHT22;22740;52.182;8.780;2023-08-21T19:52:41;21.40;99.90
36790;DHT22;22740;52.182;8.780;2023-08-21T19:58:43;21.00;99.90
36790;DHT22;22740;52.182;8.780;2023-08-21T20:04:49;20.70;99.90
36790;DHT22;22740;52.182;8.780;2023-08-21T20:10:53;20.60;99.90
36790;DHT22;22740;52.182;8.780;2023-08-21T20:16:55;20.70;99.90
36790;DHT22;22740;52.182;8.780;2023-08-21T20:22:56;20.70;99.90
36790;DHT22;22740;52.182;8.780;2023-08-21T20:28:58;20.50;99.90
36790;DHT22;22740;52.182;8.780;2023-08-21T20:35:03;20.40;99.90
36790;DHT22;22740;52.182;8.780;2023-08-21T20:41:06;20.40;99.90
36790;DHT22;22740;52.182;8.780;2023-08-21T20:47:08;20.30;99.90
36790;DHT22;22740;52.182;8.780;2023-08-21T20:53:10;20.40;99.90
36790;DHT22;22740;52.182;8.780;2023-08-21T20:59:13;20.40;99.90
36790;DHT22;22740;52.182;8.780;2023-08-21T21:05:15;20.50;99.90
36790;DHT22;22740;52.182;8.780;2023-08-21T21:11:17;20.20;99.90
36790;DHT22;22740;52.182;8.780;2023-08-21T21:17:18;20.30;99.90
36790;DHT22;22740;52.182;8.780;2023-08-21T21:23:20;20.30;99.90
36790;DHT22;22740;52.182;8.780;2023-08-21T21:29:23;20.00;99.90
36790;DHT22;22740;52.182;8.780;2023-08-21T21:35:25;20.10;99.90
36790;DHT22;22740;52.182;8.780;2023-08-21T21:41:27;20.10;99.90
36790;DHT22;22740;52.182;8.780;2023-08-21T21:47:29;20.00;99.90
36790;DHT22;22740;52.182;8.780;2023-08-21T21:53:31;19.80;99.90
36790;DHT22;22740;52.182;8.780;2023-08-21T21:59:33;19.80;99.90
36790;DHT22;22740;52.182;8.780;2023-08-21T22:05:35;19.50;99.90
36790;DHT22;22740;52.182;8.780;2023-08-21T22:11:37;19.60;99.90
36790;DHT22;22740;52.182;8.780;2023-08-21T22:17:39;19.70;99.90
36790;DHT22;22740;52.182;8.780;2023-08-21T22:23:41;19.30;99.90
36790;DHT22;22740;52.182;8.780;2023-08-21T22:29:43;19.50;99.90
36790;DHT22;22740;52.182;8.780;2023-08-21T22:35:46;19.40;99.90
36790;DHT22;22740;52.182;8.780;2023-08-21T22:41:48;19.40;99.90
36790;DHT22;22740;52.182;8.780;2023-08-21T22:47:50;19.30;99.90
36790;DHT22;22740;52.182;8.780;2023-08-21T22:53:52;19.20;99.90
36790;DHT22;22740;52.182;8.780;2023-08-21T22:59:54;19.20;99.90
36790;DHT22;22740;52.182;8.780;2023-08-21T23:05:56;19.40;99.90
36790;DHT22;22740;52.182;8.780;2023-08-21T23:11:58;19.50;99.90
36790;DHT22;22740;52.182;8.780;2023-08-21T23:18:00;19.50;99.90
36790;DHT22;22740;52.182;8.780;2023-08-21T23:24:03;19.40;99.90
36790;DHT22;22740;52.182;8.780;2023-08-21T23:30:05;19.40;99.90
36790;DHT22;22740;52.182;8.780;2023-08-21T23:36:07;19.30;99.90
36790;DHT22;22740;52.182;8.780;2023-08-21T23:42:09;19.20;99.90
36790;DHT22;22740;52.182;8.780;2023-08-21T23:48:11;18.70;99.90
36790;DHT22;22740;52.182;8.780;2023-08-21T23:54:13;18.80;99.90
